Time;durP1;ratioP1;P1;durP2;ratioP2;P2;SDS_P1;SDS_P2;PMS_P1;PMS_P2;Temp;Humidity;BMP_temperature;BMP_pressure;BME280_temperature;BME280_humidity;BME280_pressure;Samples;Min_cycle;Max_cycle;Signal;HPM_P1;HPM_P2
2022/05/14 00:00:58;;;;;;;17.73;6.03;;;16.10;56.00;;;;;;5029044;28;20208;-90
2022/05/14 00:03:26;;;;;;;12.07;4.40;;;16.10;56.60;;;;;;5026706;28;20205;-89
2022/05/14 00:05:57;;;;;;;15.93;4.97;;;16.10;56.00;;;;;;5027389;28;20207;-89
2022/05/14 00:08:25;;;;;;;12.70;3.97;;;16.00;56.00;;;;;;5010504;28;20298;-89
2022/05/14 00:13:39;;;;;;;17.13;4.90;;;16.00;56.40;;;;;;5024209;28;20660;-89
2022/05/14 00:16:12;;;;;;;11.87;4.50;;;16.00;56.60;;;;;;5029750;28;20235;-90
2022/05/14 00:18:40;;;;;;;12.93;4.33;;;15.90;56.70;;;;;;5027782;28;20236;-90
2022/05/14 00:21:07;;;;;;;15.77;4.73;;;15.90;56.30;;;;;;5027646;28;20572;-89
2022/05/14 00:23:34;;;;;;;15.23;4.43;;;15.90;56.30;;;;;;5028964;28;20230;-90
2022/05/14 00:26:01;;;;;;;15.97;5.03;;;15.90;56.40;;;;;;5017355;28;20686;-89
2022/05/14 00:28:28;;;;;;;12.10;5.00;;;15.90;56.70;;;;;;5010729;28;20224;-92
2022/05/14 00:30:57;;;;;;;12.50;4.17;;;15.90;56.70;;;;;;5017562;28;20212;-90
2022/05/14 00:33:26;;;;;;;16.10;6.20;;;15.80;56.60;;;;;;5028427;28;20254;-91
2022/05/14 00:35:58;;;;;;;20.43;6.27;;;15.80;56.70;;;;;;5026130;28;20310;-91
2022/05/14 00:38:26;;;;;;;20.43;6.57;;;15.80;57.90;;;;;;5028109;28;21049;-88
2022/05/14 00:40:58;;;;;;;11.43;4.33;;;15.80;57.10;;;;;;5030173;28;20212;-91
2022/05/14 00:43:26;;;;;;;18.80;6.33;;;15.70;57.20;;;;;;5026609;28;20206;-91
2022/05/14 00:45:57;;;;;;;9.40;4.03;;;15.70;57.20;;;;;;5029973;28;20204;-89
2022/05/14 00:48:26;;;;;;;16.70;4.53;;;15.70;57.30;;;;;;5027952;28;20229;-92
2022/05/14 00:50:57;;;;;;;15.00;5.03;;;15.70;57.30;;;;;;5014357;28;20216;-88
2022/05/14 00:53:27;;;;;;;9.53;3.73;;;15.70;58.00;;;;;;5023195;28;20608;-91
2022/05/14 00:56:05;;;;;;;16.60;6.10;;;15.60;58.00;;;;;;5030297;28;20201;-88
2022/05/14 00:58:42;;;;;;;11.17;5.13;;;15.70;58.20;;;;;;5028927;28;20222;-90
2022/05/14 01:01:12;;;;;;;13.27;4.60;;;15.60;58.00;;;;;;5028411;28;20308;-89
2022/05/14 01:03:39;;;;;;;12.37;4.27;;;15.60;58.10;;;;;;5031377;28;20207;-92
2022/05/14 01:06:09;;;;;;;10.93;4.07;;;15.50;58.10;;;;;;5025061;28;20271;-94
2022/05/14 01:08:37;;;;;;;12.00;4.27;;;15.50;58.30;;;;;;5010828;28;20288;-93
2022/05/14 01:11:05;;;;;;;13.47;4.67;;;15.50;58.10;;;;;;5017549;28;20206;-90
2022/05/14 01:13:32;;;;;;;15.07;5.63;;;15.40;58.30;;;;;;5029904;28;20274;-89
2022/05/14 01:16:01;;;;;;;23.17;5.97;;;15.40;59.00;;;;;;5024804;28;20209;-89
2022/05/14 01:18:33;;;;;;;13.30;4.23;;;15.40;58.50;;;;;;5026986;28;20274;-88
2022/05/14 01:21:02;;;;;;;18.03;5.47;;;15.40;58.90;;;;;;5025721;28;20278;-90
2022/05/14 01:26:30;;;;;;;14.10;4.67;;;15.40;59.10;;;;;;5024628;28;20207;-88
2022/05/14 01:28:59;;;;;;;17.57;4.97;;;15.30;58.80;;;;;;5025692;28;20282;-89
2022/05/14 01:31:30;;;;;;;19.40;6.40;;;15.30;58.70;;;;;;5025209;28;20308;-88
2022/05/14 01:34:01;;;;;;;14.17;5.10;;;15.30;59.00;;;;;;5028340;28;20232;-88
2022/05/14 01:36:28;;;;;;;12.07;4.90;;;15.30;59.20;;;;;;5024036;28;20221;-89
2022/05/14 01:38:56;;;;;;;16.90;5.07;;;15.20;59.10;;;;;;5027164;28;20300;-91
2022/05/14 01:41:24;;;;;;;16.87;5.33;;;15.30;59.20;;;;;;5025841;28;20220;-89
2022/05/14 01:43:51;;;;;;;18.97;5.23;;;15.20;59.30;;;;;;5020397;28;20288;-89
2022/05/14 01:46:19;;;;;;;14.93;5.30;;;15.20;59.90;;;;;;5027031;28;20209;-88
2022/05/14 01:48:47;;;;;;;12.63;4.73;;;15.20;59.30;;;;;;5026687;28;20251;-89
2022/05/14 01:51:14;;;;;;;17.10;5.57;;;15.20;59.40;;;;;;5027261;28;20288;-89
2022/05/14 01:53:42;;;;;;;13.13;5.57;;;15.20;59.40;;;;;;5026229;28;20210;-89
2022/05/14 01:56:09;;;;;;;13.47;5.07;;;15.20;59.50;;;;;;5026313;28;20228;-89
2022/05/14 01:58:38;;;;;;;15.20;5.60;;;15.10;59.80;;;;;;5026872;28;20766;-89
2022/05/14 02:01:16;;;;;;;15.00;4.97;;;15.10;59.90;;;;;;5026630;28;20748;-89
2022/05/14 02:03:45;;;;;;;9.97;4.47;;;15.10;60.10;;;;;;5027383;28;20283;-89
2022/05/14 02:06:13;;;;;;;14.30;5.80;;;15.10;59.80;;;;;;5026526;28;20216;-89
2022/05/14 02:08:40;;;;;;;14.63;5.00;;;15.00;59.80;;;;;;5025427;28;20209;-89
2022/05/14 02:11:09;;;;;;;15.80;5.73;;;15.00;59.60;;;;;;5031828;28;20302;-89
2022/05/14 02:13:38;;;;;;;13.23;5.40;;;15.00;59.70;;;;;;5039512;28;20298;-89
2022/05/14 02:16:05;;;;;;;15.00;5.23;;;15.00;59.70;;;;;;5036833;28;20246;-90
2022/05/14 02:18:33;;;;;;;14.83;5.77;;;14.90;59.90;;;;;;5037596;28;20307;-89
2022/05/14 02:21:00;;;;;;;13.07;5.30;;;14.90;60.20;;;;;;5034448;28;20651;-90
2022/05/14 02:23:29;;;;;;;11.63;5.40;;;14.90;60.30;;;;;;5034656;28;20208;-90
2022/05/14 02:25:56;;;;;;;16.70;6.33;;;14.90;60.30;;;;;;5030655;28;20208;-89
2022/05/14 02:28:23;;;;;;;15.80;5.87;;;14.80;60.20;;;;;;5015558;28;20238;-89
2022/05/14 02:30:52;;;;;;;14.93;5.00;;;14.80;60.20;;;;;;5022514;28;20204;-91
2022/05/14 02:33:18;;;;;;;13.93;5.70;;;14.80;60.20;;;;;;5031004;28;20307;-90
2022/05/14 02:35:46;;;;;;;17.57;6.43;;;14.80;60.20;;;;;;5029815;28;20264;-89
2022/05/14 02:38:15;;;;;;;16.73;5.90;;;14.80;60.90;;;;;;5037712;28;20207;-89
2022/05/14 02:40:42;;;;;;;12.37;5.40;;;14.70;60.10;;;;;;5041325;28;20276;-89
2022/05/14 02:43:10;;;;;;;16.27;5.93;;;14.70;60.20;;;;;;5037058;28;20232;-89
2022/05/14 02:45:38;;;;;;;12.93;4.73;;;14.70;60.30;;;;;;5034202;28;20211;-90
2022/05/14 02:48:13;;;;;;;12.53;5.00;;;14.70;60.60;;;;;;5032390;28;20667;-89
2022/05/14 02:50:40;;;;;;;13.37;5.13;;;14.60;60.70;;;;;;5034230;28;20220;-90
2022/05/14 02:53:08;;;;;;;12.63;5.73;;;14.60;60.40;;;;;;5026873;28;20283;-90
2022/05/14 02:55:35;;;;;;;13.90;5.70;;;14.60;60.50;;;;;;5012611;28;20605;-94
2022/05/14 02:58:02;;;;;;;19.10;6.93;;;14.60;60.60;;;;;;5024725;28;20831;-91
2022/05/14 03:00:30;;;;;;;17.07;6.30;;;14.60;60.90;;;;;;5032889;28;20274;-93
2022/05/14 03:02:58;;;;;;;15.50;6.13;;;14.60;61.30;;;;;;5030910;28;20240;-93
2022/05/14 03:05:27;;;;;;;12.57;5.50;;;14.60;61.50;;;;;;5033019;28;20747;-92
2022/05/14 03:07:55;;;;;;;12.10;5.10;;;14.60;61.30;;;;;;5030896;28;20659;-91
2022/05/14 03:10:23;;;;;;;24.23;8.03;;;14.50;60.90;;;;;;5030984;28;21015;-92
2022/05/14 03:12:50;;;;;;;17.10;6.20;;;14.50;61.00;;;;;;5027211;28;20207;-90
2022/05/14 03:15:17;;;;;;;14.10;5.70;;;14.50;60.80;;;;;;5031718;28;20261;-89
2022/05/14 03:17:47;;;;;;;18.33;7.37;;;14.50;60.80;;;;;;5028871;28;20218;-89
2022/05/14 03:20:14;;;;;;;12.07;5.47;;;14.50;61.40;;;;;;5028676;28;20238;-89
2022/05/14 03:22:43;;;;;;;20.93;7.33;;;14.50;61.60;;;;;;5027796;28;20217;-89
2022/05/14 03:25:14;;;;;;;12.97;5.50;;;14.50;61.90;;;;;;5029498;28;20260;-89
2022/05/14 03:27:41;;;;;;;16.37;6.50;;;14.40;61.70;;;;;;5028755;28;20230;-88
2022/05/14 03:30:09;;;;;;;16.07;6.23;;;14.40;61.70;;;;;;5028853;28;20297;-90
2022/05/14 03:32:36;;;;;;;16.43;6.70;;;14.40;61.40;;;;;;5029172;28;20242;-88
2022/05/14 03:35:08;;;;;;;14.73;6.17;;;14.40;61.20;;;;;;5028395;28;21021;-90
2022/05/14 03:37:35;;;;;;;18.03;6.07;;;14.40;61.50;;;;;;5027468;28;20211;-89
2022/05/14 03:40:05;;;;;;;17.30;6.93;;;14.40;61.50;;;;;;5028716;28;20323;-88
2022/05/14 03:42:32;;;;;;;16.37;6.17;;;14.40;61.60;;;;;;5028286;28;20201;-89
2022/05/14 03:45:00;;;;;;;14.07;6.37;;;14.30;61.10;;;;;;5029098;28;20207;-88
2022/05/14 03:47:29;;;;;;;13.60;5.77;;;14.30;61.10;;;;;;5028868;28;20219;-88
2022/05/14 03:49:56;;;;;;;16.10;6.33;;;14.30;60.90;;;;;;5027439;28;20211;-88
2022/05/14 03:52:24;;;;;;;13.73;5.87;;;14.30;61.10;;;;;;5033395;28;20246;-88
2022/05/14 03:54:51;;;;;;;15.87;5.40;;;14.30;61.40;;;;;;5020564;28;20303;-87
2022/05/14 03:57:19;;;;;;;12.77;5.67;;;14.20;61.50;;;;;;5030206;28;20616;-87
2022/05/14 03:59:46;;;;;;;11.07;5.53;;;14.20;61.80;;;;;;5027380;28;20236;-87
2022/05/14 04:02:13;;;;;;;13.17;5.63;;;14.20;61.70;;;;;;5029075;28;20211;-87
2022/05/14 04:04:40;;;;;;;23.23;7.70;;;14.10;61.50;;;;;;5027086;28;20217;-87
2022/05/14 04:07:07;;;;;;;12.87;5.53;;;14.10;61.50;;;;;;5029918;28;20345;-88
2022/05/14 04:09:34;;;;;;;14.37;5.67;;;14.10;61.70;;;;;;5027603;28;20201;-88
2022/05/14 04:12:01;;;;;;;11.93;5.87;;;14.00;61.90;;;;;;5032001;28;20211;-87
2022/05/14 04:14:30;;;;;;;15.53;6.03;;;14.00;61.90;;;;;;5028767;28;20207;-88
2022/05/14 04:16:58;;;;;;;14.33;6.10;;;14.00;62.40;;;;;;5029808;28;20204;-87
2022/05/14 04:19:25;;;;;;;12.30;6.13;;;14.00;62.00;;;;;;5026980;28;20246;-86
2022/05/14 04:21:53;;;;;;;18.53;7.60;;;13.90;62.00;;;;;;5026214;28;20216;-87
2022/05/14 04:24:21;;;;;;;17.13;6.97;;;13.90;61.70;;;;;;5028021;28;20219;-87
2022/05/14 04:26:48;;;;;;;20.10;7.30;;;13.90;61.80;;;;;;5028672;28;20207;-86
2022/05/14 04:29:15;;;;;;;13.27;5.33;;;13.90;61.90;;;;;;5030161;28;20222;-87
2022/05/14 04:31:43;;;;;;;30.67;9.73;;;13.80;62.00;;;;;;5026966;28;20738;-87
2022/05/14 04:34:11;;;;;;;20.30;7.23;;;13.80;62.40;;;;;;5027585;28;20324;-88
2022/05/14 04:36:39;;;;;;;21.37;7.83;;;13.80;62.60;;;;;;5028007;28;20214;-88
2022/05/14 04:39:06;;;;;;;16.33;6.40;;;13.80;63.10;;;;;;5011339;28;20222;-88
2022/05/14 04:41:33;;;;;;;17.10;6.57;;;13.80;62.90;;;;;;5013567;28;20211;-87
2022/05/14 04:44:01;;;;;;;16.27;7.00;;;13.80;63.20;;;;;;5027524;28;20213;-87
2022/05/14 04:46:31;;;;;;;18.40;7.90;;;13.80;63.60;;;;;;5031849;28;20214;-87
2022/05/14 04:48:59;;;;;;;13.70;6.83;;;13.80;63.60;;;;;;5028293;28;20255;-88
2022/05/14 04:51:26;;;;;;;20.10;7.60;;;13.80;64.00;;;;;;5029153;28;20202;-86
2022/05/14 04:53:53;;;;;;;14.40;6.53;;;13.80;63.90;;;;;;5026971;28;20253;-86
2022/05/14 04:56:23;;;;;;;18.37;7.33;;;13.80;64.20;;;;;;5027383;28;20861;-88
2022/05/14 04:58:50;;;;;;;19.17;7.57;;;13.80;64.40;;;;;;5028038;28;20215;-87
2022/05/14 05:01:17;;;;;;;19.70;7.60;;;13.80;64.30;;;;;;5025354;28;20205;-86
2022/05/14 05:03:43;;;;;;;16.97;6.73;;;13.80;64.40;;;;;;5027457;28;20213;-86
2022/05/14 05:06:14;;;;;;;15.53;6.80;;;13.80;64.80;;;;;;5027184;28;20214;-89
2022/05/14 05:08:42;;;;;;;21.67;7.63;;;13.80;65.30;;;;;;5027099;28;20214;-86
2022/05/14 05:11:12;;;;;;;24.33;8.43;;;13.70;65.40;;;;;;5028165;28;20204;-89
2022/05/14 05:13:40;;;;;;;15.20;6.77;;;13.80;65.90;;;;;;5012289;28;20211;-88
2022/05/14 05:16:07;;;;;;;21.53;7.70;;;13.70;65.80;;;;;;5027993;28;20208;-91
2022/05/14 05:18:37;;;;;;;19.07;8.13;;;13.80;66.10;;;;;;5029279;28;20256;-87
2022/05/14 05:21:07;;;;;;;19.47;7.30;;;13.80;66.60;;;;;;5025759;28;20584;-86
2022/05/14 05:23:35;;;;;;;22.03;8.37;;;13.70;67.00;;;;;;5029121;28;20210;-86
2022/05/14 05:26:06;;;;;;;17.03;7.30;;;13.80;67.80;;;;;;5027426;28;20670;-85
2022/05/14 05:28:33;;;;;;;15.33;7.10;;;13.80;67.60;;;;;;5029277;28;20197;-87
2022/05/14 05:31:03;;;;;;;30.17;10.47;;;13.80;67.60;;;;;;5024015;28;20274;-89
2022/05/14 05:33:31;;;;;;;14.87;6.27;;;13.80;68.10;;;;;;5029124;28;20738;-92
2022/05/14 05:35:58;;;;;;;19.23;7.73;;;13.80;67.80;;;;;;5026454;28;20203;-87
2022/05/14 05:38:25;;;;;;;14.03;6.50;;;13.80;68.10;;;;;;5027339;28;20296;-88
2022/05/14 05:41:15;;;;;;;20.80;8.67;;;13.80;68.40;;;;;;5021910;28;21019;-87
2022/05/14 05:43:42;;;;;;;19.10;7.93;;;13.80;69.30;;;;;;5024450;28;20202;-88
2022/05/14 05:46:11;;;;;;;20.90;7.70;;;13.80;69.10;;;;;;5033342;28;20286;-89
2022/05/14 05:48:40;;;;;;;21.57;8.40;;;13.80;69.40;;;;;;5032044;28;20257;-89
2022/05/14 05:51:08;;;;;;;14.97;7.57;;;13.90;69.60;;;;;;5044688;28;20210;-91
2022/05/14 05:59:07;;;;;;;14.97;8.00;;;14.00;70.40;;;;;;5027873;28;20332;-87
2022/05/14 06:01:34;;;;;;;24.63;9.00;;;14.00;70.50;;;;;;5032664;28;20824;-86
2022/05/14 06:04:01;;;;;;;20.27;9.27;;;14.10;70.60;;;;;;5028735;28;20730;-86
2022/05/14 06:06:29;;;;;;;17.03;8.27;;;14.10;71.30;;;;;;5032458;28;20215;-88
2022/05/14 06:08:56;;;;;;;18.17;7.97;;;14.20;72.40;;;;;;5033304;28;20223;-86
2022/05/14 06:11:25;;;;;;;16.83;8.43;;;14.20;72.30;;;;;;5031203;28;20303;-87
2022/05/14 06:13:52;;;;;;;21.13;8.53;;;14.30;72.80;;;;;;5031178;28;20664;-85
2022/05/14 06:16:28;;;;;;;23.97;9.20;;;14.30;72.30;;;;;;5033456;28;20208;-88
2022/05/14 06:18:55;;;;;;;17.97;8.43;;;14.40;73.80;;;;;;5036258;28;20208;-87
2022/05/14 06:21:23;;;;;;;30.17;9.40;;;14.40;72.30;;;;;;5053264;28;20308;-87
2022/05/14 06:23:51;;;;;;;26.97;9.87;;;14.50;72.40;;;;;;5038890;28;20235;-85
2022/05/14 06:26:18;;;;;;;27.50;11.03;;;14.60;73.30;;;;;;5014907;28;20208;-88
2022/05/14 06:28:46;;;;;;;23.23;9.87;;;14.60;73.10;;;;;;5022938;28;20232;-87
2022/05/14 06:31:16;;;;;;;23.97;10.03;;;14.70;74.00;;;;;;5027081;28;20216;-87
2022/05/14 06:33:44;;;;;;;26.07;10.33;;;14.80;73.60;;;;;;5030064;28;20240;-86
2022/05/14 06:36:11;;;;;;;27.13;10.60;;;14.90;73.70;;;;;;5028180;28;20208;-87
2022/05/14 06:38:39;;;;;;;20.30;8.03;;;15.00;73.80;;;;;;5032240;28;20213;-84
2022/05/14 06:41:07;;;;;;;19.60;8.30;;;15.10;73.90;;;;;;5029403;28;20228;-85
2022/05/14 06:43:34;;;;;;;28.23;11.50;;;15.10;74.00;;;;;;5027218;28;20264;-87
2022/05/14 06:46:03;;;;;;;30.60;10.43;;;15.20;74.00;;;;;;5013300;28;20254;-86
2022/05/14 06:48:31;;;;;;;34.70;11.80;;;15.30;74.70;;;;;;5010488;28;20202;-85
2022/05/14 06:51:01;;;;;;;27.00;10.30;;;15.40;74.10;;;;;;5018891;28;20284;-86
2022/05/14 06:53:30;;;;;;;31.47;10.30;;;15.50;74.90;;;;;;5022414;28;20220;-86
2022/05/14 06:56:00;;;;;;;30.00;9.43;;;15.60;74.30;;;;;;5022412;28;20244;-86
2022/05/14 06:58:32;;;;;;;20.10;7.70;;;15.60;74.80;;;;;;5028328;28;20204;-88
2022/05/14 07:00:59;;;;;;;31.17;9.83;;;15.70;74.30;;;;;;5025393;28;20770;-91
2022/05/14 07:09:02;;;;;;;17.33;7.43;;;16.00;73.90;;;;;;5030329;28;20208;-88
2022/05/14 07:11:29;;;;;;;15.97;7.53;;;16.10;74.50;;;;;;5029242;28;20233;-93
2022/05/14 07:13:57;;;;;;;19.50;7.93;;;16.20;73.80;;;;;;5030799;28;20211;-88
2022/05/14 07:16:24;;;;;;;18.10;8.30;;;16.30;73.80;;;;;;5030463;28;20217;-88
2022/05/14 07:18:55;;;;;;;18.80;7.87;;;16.40;74.10;;;;;;5031185;28;20602;-89
2022/05/14 07:21:22;;;;;;;19.37;7.83;;;16.40;75.00;;;;;;5028515;28;20237;-88
2022/05/14 07:23:50;;;;;;;27.33;7.43;;;16.60;74.10;;;;;;5027623;28;20205;-88
2022/05/14 07:26:18;;;;;;;35.73;8.10;;;16.60;73.60;;;;;;5030226;28;20197;-93
2022/05/14 07:28:46;;;;;;;27.10;7.93;;;16.70;73.40;;;;;;5029363;28;20206;-90
2022/05/14 07:31:16;;;;;;;26.13;7.77;;;16.80;73.40;;;;;;5025726;28;20206;-88
2022/05/14 07:34:06;;;;;;;22.43;7.97;;;16.90;72.80;;;;;;5025574;28;20226;-88
2022/05/14 07:36:38;;;;;;;36.90;8.63;;;17.00;73.90;;;;;;5023022;28;20216;-87
2022/05/14 07:39:05;;;;;;;43.03;9.53;;;17.10;73.10;;;;;;5021393;28;20211;-90
2022/05/14 07:41:38;;;;;;;21.13;7.73;;;17.20;72.30;;;;;;5015738;28;20722;-88
2022/05/14 07:44:07;;;;;;;40.23;11.20;;;17.30;72.30;;;;;;5019224;28;20702;-89
2022/05/14 07:46:37;;;;;;;17.57;7.93;;;17.40;72.20;;;;;;5022150;28;20949;-87
2022/05/14 07:49:10;;;;;;;31.77;10.87;;;17.50;71.70;;;;;;5024914;28;20299;-86
2022/05/14 07:51:38;;;;;;;27.97;9.50;;;17.60;71.90;;;;;;5013348;28;20212;-87
2022/05/14 07:54:14;;;;;;;24.87;8.83;;;17.60;71.50;;;;;;5020173;28;20203;-89
2022/05/14 07:56:43;;;;;;;20.57;7.77;;;17.70;71.50;;;;;;5019291;28;20626;-89
2022/05/14 07:59:12;;;;;;;28.13;8.57;;;17.80;71.00;;;;;;5022567;28;20305;-88
2022/05/14 08:01:40;;;;;;;25.40;10.20;;;17.90;71.80;;;;;;5024139;28;20217;-86
2022/05/14 08:04:09;;;;;;;25.83;7.90;;;18.00;70.80;;;;;;5025057;28;20197;-88
2022/05/14 08:06:36;;;;;;;15.27;6.67;;;18.20;70.90;;;;;;5015163;28;20205;-88
2022/05/14 08:09:05;;;;;;;21.27;7.60;;;18.20;70.30;;;;;;5019741;28;20235;-89
2022/05/14 08:11:32;;;;;;;28.10;8.13;;;18.30;70.00;;;;;;5030135;28;20262;-87
2022/05/14 08:14:01;;;;;;;24.27;9.23;;;18.40;69.70;;;;;;5027623;28;20212;-87
2022/05/14 08:16:28;;;;;;;27.47;8.50;;;18.50;69.50;;;;;;5027669;28;20208;-88
2022/05/14 08:18:55;;;;;;;21.03;8.00;;;18.60;69.60;;;;;;5025138;28;20208;-86
2022/05/14 08:26:55;;;;;;;29.47;10.87;;;18.90;68.90;;;;;;5027476;28;20245;-88
2022/05/14 08:29:23;;;;;;;47.17;11.77;;;19.00;69.10;;;;;;5014595;28;20810;-87
2022/05/14 08:31:50;;;;;;;22.10;8.53;;;19.10;68.90;;;;;;5028393;28;20651;-87
2022/05/14 08:34:18;;;;;;;28.43;9.57;;;19.20;68.40;;;;;;5028083;28;20346;-86
2022/05/14 08:36:47;;;;;;;27.70;8.50;;;19.20;68.20;;;;;;5027067;28;20204;-87
2022/05/14 08:39:16;;;;;;;25.20;8.53;;;19.40;68.50;;;;;;5028328;28;20204;-86
2022/05/14 08:41:46;;;;;;;18.87;8.27;;;19.40;68.20;;;;;;5029347;28;20653;-87
2022/05/14 08:44:17;;;;;;;129.07;21.03;;;19.50;68.20;;;;;;5028156;28;20209;-88
2022/05/14 08:46:45;;;;;;;28.17;9.67;;;19.70;68.60;;;;;;5024779;28;20325;-88
2022/05/14 08:49:20;;;;;;;31.23;8.93;;;19.90;68.50;;;;;;5028963;28;20327;-86
2022/05/14 08:51:51;;;;;;;21.23;7.77;;;20.00;67.90;;;;;;5026001;28;20668;-87
2022/05/14 08:54:19;;;;;;;19.90;9.23;;;20.30;67.70;;;;;;5008865;28;20237;-85
2022/05/14 08:56:55;;;;;;;15.07;7.77;;;20.40;67.40;;;;;;5011162;28;20276;-86
2022/05/14 08:59:44;;;;;;;19.00;6.83;;;20.70;66.60;;;;;;5027303;28;20283;-86
2022/05/14 09:02:15;;;;;;;25.97;9.13;;;20.90;66.30;;;;;;5027047;28;20237;-86
2022/05/14 09:04:42;;;;;;;26.27;9.97;;;21.20;66.20;;;;;;5025674;28;20225;-86
2022/05/14 09:07:10;;;;;;;15.70;7.53;;;21.40;65.60;;;;;;5027745;28;20226;-86
2022/05/14 09:09:48;;;;;;;17.30;7.00;;;21.60;64.80;;;;;;5028868;28;20779;-86
2022/05/14 09:12:19;;;;;;;18.77;7.40;;;21.80;62.80;;;;;;5027833;28;20309;-86
2022/05/14 09:14:46;;;;;;;26.53;8.20;;;22.10;63.10;;;;;;5028768;28;20276;-89
2022/05/14 09:17:20;;;;;;;16.37;6.67;;;22.30;62.80;;;;;;5027575;28;20293;-88
2022/05/14 09:19:49;;;;;;;16.33;7.17;;;22.50;61.60;;;;;;5021576;28;20204;-86
2022/05/14 09:22:28;;;;;;;14.50;7.47;;;22.70;61.20;;;;;;5027290;28;20695;-86
2022/05/14 09:25:01;;;;;;;25.80;7.80;;;23.00;59.70;;;;;;5026533;28;20334;-86
2022/05/14 09:27:33;;;;;;;13.17;6.17;;;23.20;60.10;;;;;;5030959;28;20617;-87
2022/05/14 09:30:05;;;;;;;16.40;6.67;;;23.30;60.00;;;;;;5029011;28;20201;-86
2022/05/14 09:32:36;;;;;;;13.43;6.03;;;23.50;58.90;;;;;;5032554;28;20677;-86
2022/05/14 09:35:10;;;;;;;19.60;7.40;;;23.70;58.70;;;;;;5029535;28;20268;-87
2022/05/14 09:37:39;;;;;;;16.07;6.60;;;23.80;58.40;;;;;;5029766;28;20286;-92
2022/05/14 09:40:13;;;;;;;21.17;8.30;;;24.00;58.60;;;;;;5027754;28;20290;-88
2022/05/14 09:42:44;;;;;;;12.00;5.60;;;24.20;57.60;;;;;;5030964;28;20678;-89
2022/05/14 09:45:26;;;;;;;12.70;5.73;;;24.30;57.50;;;;;;5034761;28;20232;-92
2022/05/14 09:47:54;;;;;;;10.80;5.60;;;24.50;56.70;;;;;;5032141;28;20223;-93
2022/05/14 09:50:24;;;;;;;17.97;6.87;;;24.60;56.60;;;;;;5033349;28;20239;-95
2022/05/14 09:53:00;;;;;;;15.67;6.60;;;24.80;54.90;;;;;;5038579;28;20208;-87
2022/05/14 09:55:49;;;;;;;23.33;7.97;;;24.80;54.90;;;;;;5034705;28;20247;-86
2022/05/14 09:58:25;;;;;;;12.60;5.87;;;24.90;54.50;;;;;;5032638;28;20308;-88
2022/05/14 10:00:58;;;;;;;12.07;5.40;;;25.00;55.30;;;;;;5034763;28;20216;-88
2022/05/14 10:03:44;;;;;;;15.00;5.53;;;25.10;54.90;;;;;;5039698;28;20757;-93
2022/05/14 10:06:24;;;;;;;10.17;5.50;;;25.20;54.50;;;;;;5029782;28;20223;-91
2022/05/14 10:09:07;;;;;;;13.13;6.53;;;25.30;54.20;;;;;;5032185;28;20216;-91
2022/05/14 10:11:40;;;;;;;12.03;5.70;;;25.40;53.60;;;;;;5021288;28;20239;-95
2022/05/14 10:14:20;;;;;;;17.20;7.57;;;25.40;53.20;;;;;;5030768;28;20649;-91
2022/05/14 10:17:03;;;;;;;16.63;6.10;;;25.50;53.30;;;;;;5033706;28;20200;-91
2022/05/14 10:20:01;;;;;;;14.87;5.80;;;25.60;53.30;;;;;;5030917;28;20209;-86
2022/05/14 10:28:14;;;;;;;13.90;6.30;;;25.90;53.50;;;;;;5019289;28;20227;-89
2022/05/14 10:30:49;;;;;;;11.13;5.50;;;26.10;53.00;;;;;;5029309;28;21023;-93
2022/05/14 10:33:22;;;;;;;11.87;5.87;;;26.20;52.80;;;;;;5031046;28;20260;-91
2022/05/14 10:35:57;;;;;;;17.80;6.73;;;26.30;52.00;;;;;;5033165;28;20247;-93
2022/05/14 10:38:29;;;;;;;11.57;6.50;;;26.40;51.50;;;;;;5030742;28;20245;-92
2022/05/14 10:41:03;;;;;;;10.73;5.30;;;26.50;51.60;;;;;;5048372;28;20771;-88
2022/05/14 10:43:39;;;;;;;13.03;5.40;;;26.60;52.00;;;;;;5042607;28;20235;-86
2022/05/14 10:46:10;;;;;;;13.50;6.13;;;26.70;51.00;;;;;;5031199;28;20239;-88
2022/05/14 10:48:48;;;;;;;11.93;6.30;;;26.80;50.60;;;;;;5030072;28;20884;-87
2022/05/14 10:51:21;;;;;;;16.03;6.83;;;26.80;50.90;;;;;;5030787;28;20685;-87
2022/05/14 10:53:48;;;;;;;9.77;4.90;;;26.90;50.40;;;;;;5031440;28;20209;-87
2022/05/14 10:56:28;;;;;;;16.43;6.77;;;27.00;51.40;;;;;;5030421;28;20213;-88
2022/05/14 10:59:02;;;;;;;13.73;5.37;;;27.10;49.80;;;;;;5030414;28;20201;-87
2022/05/14 11:01:38;;;;;;;16.30;7.03;;;27.20;50.00;;;;;;5030301;28;20229;-88
2022/05/14 11:04:16;;;;;;;11.87;5.83;;;27.30;50.60;;;;;;5029888;28;20208;-89
2022/05/14 11:06:53;;;;;;;19.63;6.07;;;27.50;48.10;;;;;;5025943;28;20274;-87
2022/05/14 11:09:35;;;;;;;14.67;7.30;;;27.60;48.90;;;;;;5014212;28;20301;-88
2022/05/14 11:12:08;;;;;;;9.87;6.10;;;27.70;48.40;;;;;;5025347;28;20706;-85
2022/05/14 11:14:40;;;;;;;12.80;5.23;;;27.70;48.70;;;;;;5028866;28;20208;-86
2022/05/14 11:17:19;;;;;;;10.83;5.87;;;27.80;48.00;;;;;;5029388;28;20196;-87
2022/05/14 11:19:48;;;;;;;13.53;6.77;;;27.80;47.10;;;;;;5026924;28;20196;-88
2022/05/14 11:22:24;;;;;;;10.97;5.87;;;27.80;47.80;;;;;;5027844;28;20347;-87
2022/05/14 11:24:52;;;;;;;20.70;6.20;;;27.80;47.80;;;;;;5023574;28;20721;-89
2022/05/14 11:27:30;;;;;;;12.90;6.47;;;27.80;48.80;;;;;;5010715;28;20737;-87
2022/05/14 11:30:02;;;;;;;12.77;6.47;;;27.70;48.60;;;;;;5021172;28;20209;-86
2022/05/14 11:32:41;;;;;;;12.13;6.17;;;27.80;49.20;;;;;;5028670;28;20213;-87
2022/05/14 11:35:10;;;;;;;13.97;6.80;;;27.80;48.80;;;;;;5030273;28;20661;-88
2022/05/14 11:37:39;;;;;;;16.40;6.47;;;27.70;49.20;;;;;;5030420;28;20669;-88
2022/05/14 11:40:16;;;;;;;13.77;5.57;;;27.70;49.30;;;;;;5030240;28;20232;-89
2022/05/14 11:42:46;;;;;;;10.30;5.93;;;27.70;49.30;;;;;;5030269;28;20315;-90
2022/05/14 11:45:17;;;;;;;11.23;5.83;;;27.70;49.50;;;;;;5028238;28;20207;-89
2022/05/14 11:48:03;;;;;;;13.77;5.23;;;27.70;49.90;;;;;;5030720;28;20201;-89
2022/05/14 11:50:34;;;;;;;14.90;6.77;;;27.70;49.30;;;;;;5029530;28;20262;-89
2022/05/14 11:53:12;;;;;;;13.27;6.60;;;27.70;49.40;;;;;;5028537;28;20279;-88
2022/05/14 11:55:45;;;;;;;12.33;6.33;;;27.80;50.00;;;;;;5030181;28;20201;-90
2022/05/14 11:58:20;;;;;;;15.00;6.73;;;27.80;49.80;;;;;;5031884;28;20225;-92
2022/05/14 12:00:51;;;;;;;14.00;6.17;;;27.90;49.30;;;;;;5029753;28;20287;-88
2022/05/14 12:03:23;;;;;;;16.53;6.47;;;27.90;49.40;;;;;;5029491;28;20256;-88
2022/05/14 12:05:56;;;;;;;14.37;7.13;;;28.00;49.50;;;;;;5027512;28;20208;-88
2022/05/14 12:09:05;;;;;;;17.30;6.27;;;28.10;49.40;;;;;;5031237;28;20196;-90
2022/05/14 12:11:36;;;;;;;12.60;5.43;;;28.20;48.80;;;;;;5029992;28;20216;-93
2022/05/14 12:14:09;;;;;;;17.07;6.93;;;28.30;48.60;;;;;;5031147;28;20230;-89
2022/05/14 12:16:38;;;;;;;12.53;5.77;;;28.30;48.50;;;;;;5029888;28;20232;-90
2022/05/14 12:19:11;;;;;;;12.90;6.07;;;28.40;48.20;;;;;;5030634;28;20209;-89
2022/05/14 12:21:38;;;;;;;17.53;5.77;;;28.50;47.80;;;;;;5029086;28;20251;-91
2022/05/14 12:24:05;;;;;;;16.07;5.87;;;28.50;48.20;;;;;;5030335;28;20641;-93
2022/05/14 12:26:36;;;;;;;12.23;5.87;;;28.50;47.80;;;;;;5031115;28;20299;-93
2022/05/14 12:29:15;;;;;;;13.77;6.73;;;28.50;47.70;;;;;;5030901;28;20207;-93
2022/05/14 12:34:34;;;;;;;10.43;4.80;;;28.60;47.70;;;;;;5032511;28;20614;-95
2022/05/14 12:37:05;;;;;;;11.17;5.73;;;28.60;47.40;;;;;;5030514;28;20204;-92
2022/05/14 12:39:33;;;;;;;10.70;5.53;;;28.60;46.80;;;;;;5030431;28;20279;-87
2022/05/14 12:42:04;;;;;;;10.57;5.17;;;28.70;47.20;;;;;;5032769;28;20645;-94
2022/05/14 12:44:36;;;;;;;13.43;5.83;;;28.80;46.80;;;;;;5031750;28;20314;-93
2022/05/14 12:47:05;;;;;;;14.87;6.70;;;28.80;46.50;;;;;;5031665;28;20236;-89
2022/05/14 12:49:38;;;;;;;18.97;8.03;;;28.90;46.20;;;;;;5028055;28;20333;-88
2022/05/14 12:52:09;;;;;;;11.27;5.47;;;29.00;46.00;;;;;;5029977;28;20247;-88
2022/05/14 12:54:49;;;;;;;12.33;5.30;;;29.10;46.20;;;;;;5027959;28;20311;-93
2022/05/14 12:57:17;;;;;;;12.53;5.53;;;29.10;45.10;;;;;;5031476;28;20291;-93
2022/05/14 12:59:46;;;;;;;13.80;5.90;;;29.20;45.70;;;;;;5048067;28;20215;-90
2022/05/14 13:02:17;;;;;;;11.80;6.13;;;29.20;44.80;;;;;;5049808;28;20247;-92
2022/05/14 13:04:51;;;;;;;16.00;6.40;;;29.30;44.90;;;;;;5045581;28;20601;-87
2022/05/14 13:07:18;;;;;;;12.90;6.17;;;29.30;44.80;;;;;;5029656;28;20295;-88
2022/05/14 13:09:45;;;;;;;19.53;6.53;;;29.30;44.60;;;;;;5028617;28;20208;-88
2022/05/14 13:12:18;;;;;;;15.13;7.20;;;29.30;45.00;;;;;;5026501;28;20427;-88
2022/05/14 13:14:54;;;;;;;13.40;6.50;;;29.40;44.10;;;;;;5028605;28;20672;-88
2022/05/14 13:17:29;;;;;;;12.67;5.57;;;29.40;44.10;;;;;;5029069;28;20197;-88
2022/05/14 13:19:58;;;;;;;10.60;5.63;;;29.50;43.90;;;;;;5029063;28;20291;-88
2022/05/14 13:22:32;;;;;;;15.50;6.40;;;29.50;44.00;;;;;;5027870;28;20487;-87